WELCOME TO BirgenAir Virtual Airlines

 STATISTICS

Pilots 31
Aircraft in fleet 2
Routes 0
Total hours: 5329:22
Flights total 5414
Flights Regular 127
Flights Charter 5287
% Flights Regular 2.35 %

 IVAO

 Active Runways & Weather of LTBA

Kalkış Pisti

35R-L

İniş Pisti

05

LTBA 250020Z 01010KT CAVOK 24/23 Q1016 NOSIG RMK RWY17L 36007KT RWY05 36008KT RWY23 02010KT

 LATEST FLIGHTS

CallsignPilotDepartureArrivalDateFlight Time
BGN557Semih İspiroğlu  LZSL  LTBH 2019-08-14 01:37
BGN001Umut Keskin  SCEL  SLVR 2019-08-10 02:16
BGN003Bülent ÇAĞLAR  SCCI  SCEL 2019-08-10 02:43

 NEWEST PILOTS

 FUTURE EVENTS

EventDate

  Facebook

 TOP 5 PILOTS BY FLIGHTS

CallsignPilotFlights
BGN003Bülent ÇAĞLAR691
BGN001Umut Keskin546
BGN974Turgut Uyanık302
BGN002Murat Türkarslan266
BGN067Ceyhun Özbesler257

 News

TitleDate



Copyright © 2011 - 2018 BirgenAir Virtual Airlines. All rights reserved. Developed by Goktug Unver